Time;durP1;ratioP1;P1;durP2;ratioP2;P2;SDS_P1;SDS_P2;PMS_P1;PMS_P2;Temp;Humidity;BMP_temperature;BMP_pressure;BME280_temperature;BME280_humidity;BME280_pressure;Samples;Min_cycle;Max_cycle;Signal;HPM_P1;HPM_P2
2022/07/09 00:01:57;;;;;;;0.50;0.50;;;19.10;99.90;;;;;;5033489;28;20208;-83
2022/07/09 00:04:23;;;;;;;0.30;0.30;;;19.20;99.90;;;;;;5034886;28;20220;-83
2022/07/09 00:06:49;;;;;;;0.30;0.30;;;19.20;99.90;;;;;;5034253;28;20182;-84
2022/07/09 00:09:14;;;;;;;0.20;0.20;;;19.20;99.90;;;;;;5035319;28;20196;-84
2022/07/09 00:11:40;;;;;;;0.47;0.47;;;19.20;99.90;;;;;;5034736;28;20213;-83
2022/07/09 00:14:05;;;;;;;0.30;0.30;;;19.20;99.90;;;;;;5034370;28;20179;-84
2022/07/09 00:16:31;;;;;;;0.40;0.40;;;19.10;99.90;;;;;;5034515;28;20725;-83
2022/07/09 00:18:56;;;;;;;0.37;0.37;;;19.10;99.90;;;;;;5035070;28;20209;-84
2022/07/09 00:21:22;;;;;;;0.27;0.27;;;19.10;99.90;;;;;;5037467;28;20199;-83
2022/07/09 00:23:48;;;;;;;1.53;0.50;;;19.10;99.90;;;;;;5034527;28;20178;-83
2022/07/09 00:26:14;;;;;;;0.30;0.30;;;19.10;99.90;;;;;;5033062;28;20847;-84
2022/07/09 00:28:39;;;;;;;0.27;0.27;;;19.00;99.90;;;;;;5035182;28;20196;-83
2022/07/09 00:31:05;;;;;;;0.30;0.30;;;19.10;99.90;;;;;;5035006;28;20216;-84
2022/07/09 00:33:31;;;;;;;0.50;0.50;;;19.10;99.90;;;;;;5033821;28;22130;-83
2022/07/09 00:35:56;;;;;;;0.30;0.30;;;19.00;99.90;;;;;;5037170;28;20190;-83
2022/07/09 00:38:22;;;;;;;0.80;0.80;;;18.90;99.90;;;;;;5036215;28;20285;-83
2022/07/09 00:40:47;;;;;;;0.50;0.50;;;18.70;99.90;;;;;;5036169;28;20570;-83
2022/07/09 00:43:18;;;;;;;0.20;0.20;;;18.60;99.90;;;;;;5036506;28;20184;-83
2022/07/09 00:45:45;;;;;;;0.20;0.20;;;18.60;99.90;;;;;;5034810;28;20200;-84
2022/07/09 00:48:11;;;;;;;1.37;0.70;;;18.60;99.90;;;;;;5041124;28;20221;-83
2022/07/09 00:50:37;;;;;;;0.40;0.40;;;18.30;99.90;;;;;;5035292;28;20271;-83
2022/07/09 00:53:03;;;;;;;0.50;0.50;;;18.30;99.90;;;;;;5035381;28;20181;-83
2022/07/09 00:55:29;;;;;;;0.60;0.60;;;18.40;99.90;;;;;;5034165;28;20170;-83
2022/07/09 00:57:55;;;;;;;0.30;0.30;;;18.30;99.90;;;;;;5033850;28;20189;-84
2022/07/09 01:00:20;;;;;;;0.30;0.30;;;18.20;99.90;;;;;;5035662;28;20249;-84
2022/07/09 01:02:48;;;;;;;0.30;0.30;;;18.00;99.90;;;;;;5035475;28;20213;-84
2022/07/09 01:05:14;;;;;;;0.20;0.20;;;18.10;99.90;;;;;;5033889;28;20182;-83
2022/07/09 01:07:40;;;;;;;0.47;0.47;;;18.00;99.90;;;;;;5034479;28;20697;-83
2022/07/09 01:10:06;;;;;;;1.07;0.50;;;18.10;99.90;;;;;;5034524;28;20189;-83
2022/07/09 01:12:32;;;;;;;0.50;0.50;;;18.00;99.90;;;;;;5033996;28;21019;-82
2022/07/09 01:14:58;;;;;;;0.33;0.33;;;18.00;99.90;;;;;;5036175;28;20196;-83
2022/07/09 01:17:23;;;;;;;0.37;0.37;;;18.10;99.90;;;;;;5031485;28;20277;-84
2022/07/09 01:19:49;;;;;;;0.57;0.57;;;17.90;99.90;;;;;;5033686;28;20214;-83
2022/07/09 01:22:15;;;;;;;0.40;0.20;;;17.90;99.90;;;;;;5033092;28;20202;-84
2022/07/09 01:24:40;;;;;;;0.30;0.30;;;17.90;99.90;;;;;;5033387;28;20252;-84
2022/07/09 01:27:07;;;;;;;0.40;0.40;;;17.90;99.90;;;;;;5036043;28;20198;-84
2022/07/09 01:29:33;;;;;;;0.80;0.80;;;17.70;99.90;;;;;;5033947;28;20271;-84
2022/07/09 01:31:58;;;;;;;0.60;0.60;;;17.60;99.90;;;;;;5034103;28;20237;-84
2022/07/09 01:34:24;;;;;;;0.30;0.30;;;17.60;99.90;;;;;;5035746;28;20192;-84
2022/07/09 01:36:49;;;;;;;0.40;0.40;;;17.70;99.90;;;;;;5034251;28;20194;-83
2022/07/09 01:39:15;;;;;;;0.33;0.33;;;17.70;99.90;;;;;;5033993;28;20214;-84
2022/07/09 01:41:40;;;;;;;0.37;0.37;;;17.70;99.90;;;;;;5035374;28;20237;-83
2022/07/09 01:44:06;;;;;;;0.27;0.27;;;17.70;99.90;;;;;;5034570;28;20252;-84
2022/07/09 01:46:33;;;;;;;0.30;0.30;;;17.80;99.90;;;;;;5041892;28;20197;-83
2022/07/09 01:48:58;;;;;;;0.27;0.27;;;17.80;99.90;;;;;;5034619;28;20249;-84
2022/07/09 01:51:24;;;;;;;0.83;0.43;;;17.80;99.90;;;;;;5032492;28;20325;-83
2022/07/09 01:53:49;;;;;;;0.37;0.37;;;17.90;99.90;;;;;;5032888;28;20223;-83
2022/07/09 01:56:15;;;;;;;0.43;0.30;;;18.00;99.90;;;;;;5035219;28;20197;-83
2022/07/09 01:58:41;;;;;;;0.60;0.60;;;18.00;99.90;;;;;;5039178;28;20230;-84
2022/07/09 02:01:06;;;;;;;0.47;0.47;;;17.90;99.90;;;;;;5033909;28;20249;-83
2022/07/09 02:03:32;;;;;;;0.70;0.53;;;17.90;99.90;;;;;;5035494;28;20185;-84
2022/07/09 02:05:57;;;;;;;0.40;0.40;;;17.90;99.90;;;;;;5035299;28;20197;-83
2022/07/09 02:08:23;;;;;;;0.30;0.30;;;17.80;99.90;;;;;;5034645;28;20190;-83
2022/07/09 02:10:50;;;;;;;0.40;0.40;;;17.80;99.90;;;;;;5032130;28;20213;-83
2022/07/09 02:13:17;;;;;;;0.27;0.27;;;17.80;99.90;;;;;;5034491;28;20676;-83
2022/07/09 02:15:42;;;;;;;0.60;0.60;;;17.80;99.90;;;;;;5033160;28;20183;-84
2022/07/09 02:18:08;;;;;;;0.67;0.67;;;17.80;99.90;;;;;;5033242;28;20183;-83
2022/07/09 02:20:34;;;;;;;0.33;0.20;;;17.70;99.90;;;;;;5033733;28;20254;-84
2022/07/09 02:22:59;;;;;;;0.40;0.40;;;17.70;99.90;;;;;;5034025;28;20190;-84
2022/07/09 02:25:25;;;;;;;0.40;0.40;;;17.70;99.90;;;;;;5034243;28;20940;-83
2022/07/09 02:27:50;;;;;;;0.23;0.23;;;17.70;99.90;;;;;;5035429;28;20682;-84
2022/07/09 02:30:16;;;;;;;0.20;0.20;;;17.70;99.90;;;;;;5033503;28;20189;-84
2022/07/09 02:32:41;;;;;;;0.40;0.40;;;17.70;99.90;;;;;;5035281;28;20182;-83
2022/07/09 02:35:08;;;;;;;0.20;0.20;;;17.60;99.90;;;;;;5039277;28;20194;-83
2022/07/09 02:37:33;;;;;;;0.50;0.50;;;17.60;99.90;;;;;;5038176;28;20272;-84
2022/07/09 02:39:59;;;;;;;0.20;0.20;;;17.50;99.90;;;;;;5037194;28;20340;-84
2022/07/09 02:42:25;;;;;;;0.30;0.30;;;17.50;99.90;;;;;;5037962;28;20309;-83
2022/07/09 02:44:50;;;;;;;0.50;0.50;;;17.50;99.90;;;;;;5039427;28;20684;-83
2022/07/09 02:47:16;;;;;;;0.63;0.63;;;17.50;99.90;;;;;;5038467;28;20298;-84
2022/07/09 02:49:42;;;;;;;0.50;0.50;;;17.60;99.90;;;;;;5036594;28;20542;-83
2022/07/09 02:52:08;;;;;;;0.57;0.43;;;17.60;99.90;;;;;;5038082;28;20216;-83
2022/07/09 02:54:34;;;;;;;0.43;0.40;;;17.60;99.90;;;;;;5036504;28;20271;-83
2022/07/09 02:57:00;;;;;;;0.50;0.50;;;17.50;99.90;;;;;;5038258;28;20236;-83
2022/07/09 02:59:26;;;;;;;0.57;0.50;;;17.50;99.90;;;;;;5038580;28;20208;-84
2022/07/09 03:01:51;;;;;;;0.40;0.40;;;17.40;99.90;;;;;;5037246;28;20251;-84
2022/07/09 03:04:17;;;;;;;0.30;0.30;;;17.40;99.90;;;;;;5039394;28;20260;-84
2022/07/09 03:06:43;;;;;;;0.60;0.60;;;17.40;99.90;;;;;;5037248;28;20186;-83
2022/07/09 03:09:08;;;;;;;0.63;0.63;;;17.40;99.90;;;;;;5036561;28;20221;-83
2022/07/09 03:11:34;;;;;;;0.40;0.40;;;17.40;99.90;;;;;;5037056;28;20216;-83
2022/07/09 03:13:59;;;;;;;0.87;0.50;;;17.30;99.90;;;;;;5059978;28;20712;-84
2022/07/09 03:16:25;;;;;;;0.57;0.33;;;17.30;99.90;;;;;;5038737;28;20248;-84
2022/07/09 03:18:50;;;;;;;0.37;0.37;;;17.30;99.90;;;;;;5038947;28;20197;-83
2022/07/09 03:21:17;;;;;;;0.63;0.50;;;17.30;99.90;;;;;;5037326;28;20730;-83
2022/07/09 03:23:42;;;;;;;0.20;0.20;;;17.30;99.90;;;;;;5038194;28;20644;-83
2022/07/09 03:26:08;;;;;;;0.20;0.20;;;17.30;99.90;;;;;;5039966;28;20182;-83
2022/07/09 03:28:34;;;;;;;0.57;0.50;;;17.30;99.90;;;;;;5038907;28;20213;-83
2022/07/09 03:31:00;;;;;;;0.50;0.50;;;17.30;99.90;;;;;;5038474;28;20248;-83
2022/07/09 03:33:25;;;;;;;0.60;0.50;;;17.30;99.90;;;;;;5038491;28;20190;-83
2022/07/09 03:35:52;;;;;;;0.27;0.27;;;17.30;99.90;;;;;;5038736;28;20186;-84
2022/07/09 03:38:18;;;;;;;0.30;0.30;;;17.30;99.90;;;;;;5037899;28;20554;-83
2022/07/09 03:40:43;;;;;;;0.47;0.47;;;17.30;99.90;;;;;;5037694;28;20202;-83
2022/07/09 03:43:09;;;;;;;0.53;0.53;;;17.30;99.90;;;;;;5037628;28;20566;-83
2022/07/09 03:45:34;;;;;;;0.40;0.40;;;17.40;99.90;;;;;;5037409;28;20198;-83
2022/07/09 03:48:00;;;;;;;0.20;0.20;;;17.70;99.90;;;;;;5035954;28;20200;-83
2022/07/09 03:50:25;;;;;;;0.47;0.37;;;18.00;99.90;;;;;;5037883;28;20231;-83
2022/07/09 03:52:51;;;;;;;0.50;0.50;;;18.30;99.90;;;;;;5037597;28;20198;-84
2022/07/09 03:55:17;;;;;;;0.50;0.50;;;18.50;99.90;;;;;;5038375;28;20189;-83
2022/07/09 03:57:42;;;;;;;0.40;0.33;;;18.80;99.90;;;;;;5035978;28;20206;-83
2022/07/09 04:00:08;;;;;;;0.43;0.43;;;19.30;99.90;;;;;;5035817;28;20210;-83
2022/07/09 04:02:34;;;;;;;0.63;0.60;;;19.90;99.90;;;;;;5037973;28;20200;-83
2022/07/09 04:04:59;;;;;;;0.40;0.40;;;20.20;99.90;;;;;;5036282;28;20208;-83
2022/07/09 04:07:26;;;;;;;0.30;0.30;;;20.20;99.90;;;;;;5036079;28;20190;-84
2022/07/09 04:09:55;;;;;;;0.97;0.50;;;20.10;99.90;;;;;;5037199;28;20644;-83
2022/07/09 04:12:21;;;;;;;0.33;0.33;;;19.80;99.90;;;;;;5037411;28;20304;-82
2022/07/09 04:14:47;;;;;;;0.30;0.30;;;19.40;99.90;;;;;;5037564;28;20186;-83
2022/07/09 04:17:12;;;;;;;3.03;0.57;;;19.20;99.90;;;;;;5042092;28;20899;-83
2022/07/09 04:19:38;;;;;;;0.30;0.30;;;19.60;99.90;;;;;;5036415;28;20217;-83
2022/07/09 04:22:04;;;;;;;1.07;0.70;;;20.00;99.90;;;;;;5034286;28;20209;-83
2022/07/09 04:24:29;;;;;;;0.30;0.30;;;20.30;99.90;;;;;;5036369;28;20170;-83
2022/07/09 04:26:55;;;;;;;0.30;0.30;;;20.20;99.90;;;;;;5036187;28;20189;-82
2022/07/09 04:29:21;;;;;;;0.43;0.43;;;19.90;99.90;;;;;;5036573;28;20190;-83
2022/07/09 04:31:46;;;;;;;1.90;1.07;;;19.40;99.90;;;;;;5034926;28;20245;-83
2022/07/09 04:34:12;;;;;;;0.90;0.90;;;19.40;99.90;;;;;;5036646;28;20189;-83
2022/07/09 04:36:37;;;;;;;0.30;0.30;;;19.40;99.90;;;;;;5036867;28;20186;-84
2022/07/09 04:39:03;;;;;;;0.57;0.57;;;19.30;99.90;;;;;;5036696;28;20209;-84
2022/07/09 04:41:29;;;;;;;0.33;0.33;;;19.20;99.90;;;;;;5036842;28;20583;-82
2022/07/09 04:43:55;;;;;;;0.50;0.50;;;19.20;99.90;;;;;;5035877;28;20197;-82
2022/07/09 04:46:25;;;;;;;0.53;0.53;;;19.00;99.90;;;;;;5037680;28;20189;-83
2022/07/09 04:48:50;;;;;;;0.50;0.50;;;19.00;99.90;;;;;;5036345;28;20281;-83
2022/07/09 04:51:16;;;;;;;0.47;0.47;;;18.80;99.90;;;;;;5036672;28;20687;-84
2022/07/09 04:53:41;;;;;;;0.60;0.60;;;18.60;99.90;;;;;;5035035;28;20869;-83
2022/07/09 04:56:07;;;;;;;0.60;0.60;;;18.40;99.90;;;;;;5036321;28;20272;-83
2022/07/09 04:58:33;;;;;;;0.60;0.60;;;18.20;99.90;;;;;;5035041;28;20217;-83
2022/07/09 05:00:59;;;;;;;0.70;0.63;;;18.00;99.90;;;;;;5035599;28;20935;-84
2022/07/09 05:03:24;;;;;;;0.60;0.50;;;18.00;99.90;;;;;;5034053;28;20186;-84
2022/07/09 05:05:51;;;;;;;0.60;0.60;;;17.90;99.90;;;;;;5034953;28;20190;-84
2022/07/09 05:08:18;;;;;;;0.37;0.37;;;17.90;99.90;;;;;;5035776;28;20201;-84
2022/07/09 05:10:44;;;;;;;0.50;0.50;;;17.80;99.90;;;;;;5032577;28;20709;-83
2022/07/09 05:13:09;;;;;;;0.40;0.40;;;17.70;99.90;;;;;;5033213;28;20189;-81
2022/07/09 05:15:35;;;;;;;0.80;0.80;;;17.80;99.90;;;;;;5032314;28;20240;-83
2022/07/09 05:18:01;;;;;;;0.50;0.50;;;17.70;99.90;;;;;;5035708;28;20194;-82
2022/07/09 05:20:26;;;;;;;1.50;0.50;;;17.70;99.90;;;;;;5035248;28;20691;-82
2022/07/09 05:22:52;;;;;;;0.70;0.70;;;17.70;99.90;;;;;;5033200;28;20974;-81
2022/07/09 05:25:18;;;;;;;1.20;0.50;;;17.70;99.90;;;;;;5036225;28;20186;-81
2022/07/09 05:27:44;;;;;;;0.40;0.40;;;17.80;99.90;;;;;;5034035;28;20188;-82
2022/07/09 05:30:13;;;;;;;0.60;0.50;;;17.80;99.90;;;;;;5034247;28;20193;-84
2022/07/09 05:32:39;;;;;;;0.33;0.33;;;17.80;99.90;;;;;;5056357;28;20182;-85
2022/07/09 05:35:05;;;;;;;1.17;0.70;;;17.90;99.90;;;;;;5034093;28;21136;-85
2022/07/09 05:37:31;;;;;;;0.80;0.50;;;18.00;99.90;;;;;;5033738;28;20304;-84
2022/07/09 05:39:57;;;;;;;0.50;0.23;;;18.10;99.90;;;;;;5033878;28;20241;-84
2022/07/09 05:42:23;;;;;;;0.40;0.40;;;18.10;99.90;;;;;;5034657;28;20224;-84
2022/07/09 05:44:49;;;;;;;2.53;0.70;;;18.30;99.90;;;;;;5035583;28;20200;-85
2022/07/09 05:47:15;;;;;;;0.40;0.40;;;18.40;99.90;;;;;;5035913;28;20202;-86
2022/07/09 05:49:40;;;;;;;0.33;0.33;;;18.50;99.90;;;;;;5040928;28;20201;-84
2022/07/09 05:52:06;;;;;;;0.40;0.40;;;18.60;99.90;;;;;;5035677;28;20996;-84
2022/07/09 05:54:32;;;;;;;0.60;0.33;;;18.60;99.90;;;;;;5035057;28;20189;-85
2022/07/09 05:56:58;;;;;;;1.20;0.93;;;18.70;99.90;;;;;;5033981;28;20186;-85
2022/07/09 05:59:23;;;;;;;0.43;0.43;;;19.00;99.90;;;;;;5033804;28;20584;-84
2022/07/09 06:01:49;;;;;;;0.97;0.40;;;19.00;99.90;;;;;;5036650;28;20202;-84
2022/07/09 06:04:14;;;;;;;0.60;0.60;;;19.00;99.90;;;;;;5032129;28;20186;-85
2022/07/09 06:06:41;;;;;;;1.63;0.70;;;19.20;99.90;;;;;;5033616;28;20188;-85
2022/07/09 06:09:07;;;;;;;0.40;0.40;;;19.30;99.90;;;;;;5037662;28;20209;-81
2022/07/09 06:11:33;;;;;;;0.47;0.47;;;19.40;99.90;;;;;;5038119;28;20199;-82
2022/07/09 06:13:59;;;;;;;4.10;0.70;;;19.60;99.90;;;;;;5038814;28;20190;-83
2022/07/09 06:16:24;;;;;;;0.73;0.50;;;19.70;99.90;;;;;;5038244;28;20189;-82
2022/07/09 06:18:50;;;;;;;0.73;0.73;;;19.90;99.90;;;;;;5041555;28;20206;-82
2022/07/09 06:21:15;;;;;;;0.30;0.30;;;20.00;99.90;;;;;;5040525;28;20205;-83
2022/07/09 06:23:41;;;;;;;4.33;0.87;;;20.10;99.90;;;;;;5044787;28;20191;-83
2022/07/09 06:26:07;;;;;;;0.40;0.40;;;20.20;99.90;;;;;;5038644;28;20204;-83
2022/07/09 06:28:36;;;;;;;0.50;0.50;;;20.40;99.90;;;;;;5039814;28;20222;-83
2022/07/09 06:31:02;;;;;;;0.40;0.40;;;20.60;99.90;;;;;;5041175;28;20208;-82
2022/07/09 06:33:27;;;;;;;0.40;0.40;;;20.80;99.90;;;;;;5036440;28;20834;-83
2022/07/09 06:35:53;;;;;;;0.47;0.47;;;21.00;99.90;;;;;;5037744;28;20203;-83
2022/07/09 06:38:18;;;;;;;0.40;0.40;;;21.10;99.90;;;;;;5039230;28;20198;-83
2022/07/09 06:40:44;;;;;;;0.30;0.30;;;21.10;99.90;;;;;;5038842;28;20205;-83
2022/07/09 06:43:11;;;;;;;2.53;0.77;;;21.20;99.90;;;;;;5039059;28;21104;-83
2022/07/09 06:45:36;;;;;;;0.30;0.30;;;21.20;99.90;;;;;;5038374;28;20194;-83
2022/07/09 06:48:02;;;;;;;0.30;0.30;;;21.20;99.90;;;;;;5037846;28;20185;-83
2022/07/09 06:50:28;;;;;;;0.70;0.70;;;21.40;99.90;;;;;;5038757;28;20241;-83
2022/07/09 06:52:54;;;;;;;1.00;0.70;;;21.50;99.90;;;;;;5038463;28;20202;-83
2022/07/09 06:55:19;;;;;;;0.97;0.97;;;21.60;99.90;;;;;;5037452;28;20249;-83
2022/07/09 06:57:45;;;;;;;0.80;0.80;;;21.80;99.90;;;;;;5038483;28;20252;-83
2022/07/09 07:00:11;;;;;;;0.50;0.50;;;22.00;99.90;;;;;;5033893;28;20347;-83
2022/07/09 07:02:36;;;;;;;1.13;1.13;;;22.00;99.90;;;;;;5040158;28;20189;-83
2022/07/09 07:05:02;;;;;;;0.97;0.97;;;22.30;99.90;;;;;;5037972;28;20214;-83
2022/07/09 07:07:28;;;;;;;1.23;0.50;;;22.50;99.90;;;;;;5039985;28;20190;-83
2022/07/09 07:09:53;;;;;;;2.83;0.70;;;22.70;99.90;;;;;;5038647;28;20185;-82
2022/07/09 07:12:19;;;;;;;0.50;0.50;;;22.90;99.90;;;;;;5038263;28;20210;-83
2022/07/09 07:14:45;;;;;;;0.73;0.70;;;23.10;99.90;;;;;;5037583;28;20181;-83
2022/07/09 07:17:10;;;;;;;0.47;0.47;;;23.30;99.90;;;;;;5038135;28;20257;-83
2022/07/09 07:19:36;;;;;;;0.40;0.40;;;23.50;99.90;;;;;;5035765;28;20202;-84
2022/07/09 07:22:02;;;;;;;0.80;0.80;;;23.70;99.90;;;;;;5034485;28;20286;-80
2022/07/09 07:24:30;;;;;;;0.40;0.40;;;23.90;99.90;;;;;;5036829;28;20264;-82
2022/07/09 07:26:56;;;;;;;0.80;0.47;;;24.30;99.90;;;;;;5036144;28;20640;-82
2022/07/09 07:29:22;;;;;;;0.30;0.30;;;24.50;99.90;;;;;;5037294;28;20209;-83
2022/07/09 07:31:47;;;;;;;0.70;0.70;;;24.30;99.90;;;;;;5038210;28;20682;-83
2022/07/09 07:34:13;;;;;;;0.70;0.63;;;24.00;99.90;;;;;;5037749;28;20651;-82
2022/07/09 07:36:39;;;;;;;0.83;0.83;;;23.70;99.90;;;;;;5038497;28;20182;-84
2022/07/09 07:39:04;;;;;;;0.53;0.53;;;23.60;99.90;;;;;;5039213;28;20219;-83
2022/07/09 07:41:30;;;;;;;0.63;0.63;;;23.50;99.90;;;;;;5038383;28;20206;-84
2022/07/09 07:43:55;;;;;;;0.57;0.57;;;23.50;99.90;;;;;;5038237;28;20190;-84
2022/07/09 07:46:21;;;;;;;0.53;0.53;;;23.60;99.90;;;;;;5038090;28;20192;-84
2022/07/09 07:48:46;;;;;;;0.70;0.70;;;23.60;99.90;;;;;;5036584;28;20190;-84
2022/07/09 07:51:12;;;;;;;0.57;0.57;;;23.50;99.90;;;;;;5037536;28;20217;-83
2022/07/09 07:53:38;;;;;;;0.50;0.50;;;23.70;99.90;;;;;;5036118;28;20260;-84
2022/07/09 07:56:05;;;;;;;0.57;0.57;;;24.10;99.90;;;;;;5034448;28;20182;-84
2022/07/09 07:58:30;;;;;;;0.33;0.33;;;24.10;99.90;;;;;;5038497;28;20851;-83
2022/07/09 08:00:56;;;;;;;0.37;0.37;;;23.80;99.90;;;;;;5035759;28;20721;-82
2022/07/09 08:03:22;;;;;;;0.40;0.40;;;24.10;99.90;;;;;;5039170;28;20403;-82
2022/07/09 08:05:47;;;;;;;0.77;0.77;;;24.20;99.90;;;;;;5035587;28;20194;-82
2022/07/09 08:08:13;;;;;;;0.60;0.60;;;23.90;99.90;;;;;;5037093;28;20190;-82
2022/07/09 08:10:39;;;;;;;0.47;0.47;;;23.90;99.90;;;;;;5036399;28;20246;-83
2022/07/09 08:13:04;;;;;;;0.33;0.33;;;24.00;99.90;;;;;;5037676;28;20190;-83
2022/07/09 08:15:30;;;;;;;0.50;0.50;;;24.20;99.90;;;;;;5037477;28;20246;-83
2022/07/09 08:17:56;;;;;;;0.70;0.43;;;24.40;99.90;;;;;;5037608;28;20264;-83
2022/07/09 08:20:22;;;;;;;0.67;0.60;;;24.60;99.90;;;;;;5036411;28;20216;-83
2022/07/09 08:22:47;;;;;;;0.57;0.57;;;24.60;99.90;;;;;;5036736;28;20184;-83
2022/07/09 08:25:13;;;;;;;1.03;0.80;;;24.80;99.90;;;;;;5035941;28;20256;-83
2022/07/09 08:27:39;;;;;;;0.40;0.40;;;24.80;99.90;;;;;;5037150;28;21403;-82
2022/07/09 08:30:06;;;;;;;1.23;0.50;;;24.40;99.90;;;;;;5033841;28;20567;-83
2022/07/09 08:32:32;;;;;;;0.50;0.50;;;24.30;99.90;;;;;;5041525;28;20669;-82
2022/07/09 08:34:58;;;;;;;0.40;0.40;;;24.20;99.90;;;;;;5038860;28;20217;-82
2022/07/09 08:37:23;;;;;;;0.83;0.67;;;24.40;99.90;;;;;;5036151;28;20248;-82
2022/07/09 08:39:49;;;;;;;0.60;0.60;;;24.30;99.90;;;;;;5035783;28;20220;-82
2022/07/09 08:42:15;;;;;;;0.40;0.40;;;23.90;99.90;;;;;;5037267;28;20294;-83
2022/07/09 08:44:46;;;;;;;0.27;0.27;;;24.10;99.90;;;;;;5034894;28;20202;-82
2022/07/09 08:47:11;;;;;;;0.50;0.50;;;24.50;99.90;;;;;;5036274;28;20189;-82
2022/07/09 08:49:38;;;;;;;1.17;0.90;;;24.70;99.90;;;;;;5042978;28;20252;-83
2022/07/09 08:52:06;;;;;;;0.50;0.50;;;24.70;99.90;;;;;;5036680;28;20217;-82
2022/07/09 08:54:33;;;;;;;0.80;0.60;;;25.10;99.90;;;;;;5035349;28;20189;-83
2022/07/09 08:56:59;;;;;;;0.57;0.57;;;25.70;99.90;;;;;;5035105;28;20185;-82
2022/07/09 08:59:24;;;;;;;1.97;0.87;;;26.30;99.90;;;;;;5058160;28;20216;-82
2022/07/09 09:01:50;;;;;;;1.00;0.80;;;26.20;99.90;;;;;;5034988;28;20221;-82
2022/07/09 09:04:17;;;;;;;0.50;0.50;;;25.90;99.90;;;;;;5034104;28;20281;-82
2022/07/09 09:06:42;;;;;;;1.00;0.60;;;25.50;99.90;;;;;;5036169;28;20184;-83
2022/07/09 09:09:10;;;;;;;0.93;0.70;;;25.10;99.90;;;;;;5036630;28;20193;-83
2022/07/09 09:11:36;;;;;;;0.50;0.43;;;24.50;99.90;;;;;;5035978;28;20659;-82
2022/07/09 09:14:03;;;;;;;0.43;0.43;;;24.40;99.90;;;;;;5036080;28;20615;-83
2022/07/09 09:16:29;;;;;;;0.40;0.30;;;24.30;99.90;;;;;;5042628;28;20224;-83
2022/07/09 09:18:56;;;;;;;0.40;0.40;;;24.50;99.90;;;;;;5039447;28;20229;-82
2022/07/09 09:21:24;;;;;;;0.20;0.20;;;24.70;99.90;;;;;;5036673;28;20213;-83
2022/07/09 09:23:55;;;;;;;0.50;0.50;;;24.90;99.90;;;;;;5036229;28;20178;-82
2022/07/09 09:26:23;;;;;;;0.60;0.60;;;25.20;99.90;;;;;;5035616;28;20178;-82
2022/07/09 09:28:54;;;;;;;0.60;0.60;;;25.20;99.90;;;;;;5035331;28;20654;-82
2022/07/09 09:31:28;;;;;;;1.80;0.63;;;25.60;99.90;;;;;;5037912;28;20218;-82
2022/07/09 09:33:55;;;;;;;0.30;0.30;;;25.80;99.90;;;;;;5041680;28;20312;-82
2022/07/09 09:36:28;;;;;;;0.37;0.37;;;26.40;99.90;;;;;;5037632;28;20205;-80
2022/07/09 09:38:54;;;;;;;0.40;0.40;;;26.00;99.90;;;;;;5041616;28;20304;-82
2022/07/09 09:41:24;;;;;;;1.17;0.40;;;25.80;99.90;;;;;;5037754;28;20289;-82
2022/07/09 09:43:55;;;;;;;0.30;0.30;;;25.70;99.90;;;;;;5041137;28;20226;-82
2022/07/09 09:46:22;;;;;;;0.37;0.23;;;25.30;99.90;;;;;;5044238;28;20248;-82
2022/07/09 09:48:49;;;;;;;1.20;1.17;;;25.00;99.90;;;;;;5037284;28;21265;-82
2022/07/09 09:51:19;;;;;;;0.40;0.30;;;24.80;99.90;;;;;;5038531;28;20213;-82
2022/07/09 09:53:46;;;;;;;0.47;0.47;;;24.80;99.90;;;;;;5044151;28;20189;-82
2022/07/09 09:56:12;;;;;;;0.50;0.50;;;25.30;99.90;;;;;;5040947;28;20212;-82
2022/07/09 09:58:39;;;;;;;0.50;0.50;;;25.40;99.90;;;;;;5040720;28;20719;-82
2022/07/09 10:01:05;;;;;;;0.30;0.30;;;25.40;99.90;;;;;;5044176;28;20206;-82
2022/07/09 10:03:31;;;;;;;0.20;0.20;;;25.50;99.90;;;;;;5046089;28;20186;-82
2022/07/09 10:05:56;;;;;;;0.50;0.50;;;25.30;99.90;;;;;;5038960;28;20209;-81
2022/07/09 10:08:22;;;;;;;0.83;0.60;;;25.10;99.90;;;;;;5037954;28;20248;-81
2022/07/09 10:10:52;;;;;;;1.03;0.40;;;25.40;99.90;;;;;;5037680;28;20201;-82
2022/07/09 10:13:21;;;;;;;0.73;0.70;;;25.20;99.90;;;;;;5040980;28;20185;-81
2022/07/09 10:15:50;;;;;;;0.40;0.40;;;25.50;99.90;;;;;;5041680;28;20947;-82
2022/07/09 10:18:19;;;;;;;0.53;0.53;;;25.30;99.90;;;;;;5061681;28;20178;-82
2022/07/09 10:20:45;;;;;;;1.73;1.63;;;25.60;99.90;;;;;;5039029;28;20205;-82
2022/07/09 10:23:22;;;;;;;0.70;0.60;;;25.60;99.90;;;;;;5040777;28;20187;-82
2022/07/09 10:25:52;;;;;;;0.37;0.37;;;25.40;99.90;;;;;;5039157;28;20657;-83
2022/07/09 10:28:19;;;;;;;0.67;0.67;;;25.50;99.90;;;;;;5040505;28;20186;-82
2022/07/09 10:30:45;;;;;;;0.43;0.43;;;25.70;99.90;;;;;;5043383;28;20237;-82
2022/07/09 10:33:21;;;;;;;0.50;0.50;;;25.10;99.90;;;;;;5039035;28;20202;-82
2022/07/09 10:35:57;;;;;;;0.60;0.60;;;24.90;99.90;;;;;;5040426;28;20186;-81
2022/07/09 10:38:33;;;;;;;0.57;0.57;;;25.30;99.90;;;;;;5038458;28;20992;-82
2022/07/09 10:41:00;;;;;;;0.50;0.50;;;25.60;99.90;;;;;;5037757;28;20518;-82
2022/07/09 10:43:46;;;;;;;0.47;0.43;;;25.50;99.90;;;;;;5035692;28;20206;-83
2022/07/09 10:46:13;;;;;;;0.30;0.30;;;25.70;99.90;;;;;;5038833;28;20174;-82
2022/07/09 10:48:39;;;;;;;0.47;0.47;;;26.20;99.90;;;;;;5039121;28;20193;-82
2022/07/09 10:51:05;;;;;;;0.60;0.60;;;27.20;99.90;;;;;;5038966;28;20208;-83
2022/07/09 10:53:30;;;;;;;0.50;0.50;;;27.30;99.90;;;;;;5037985;28;20198;-82
2022/07/09 10:55:56;;;;;;;0.70;0.60;;;27.20;99.90;;;;;;5038266;28;20194;-82
2022/07/09 10:58:24;;;;;;;0.40;0.40;;;27.30;99.90;;;;;;5042584;28;20198;-82
2022/07/09 11:01:03;;;;;;;0.60;0.60;;;27.50;99.90;;;;;;5038947;28;20209;-83
2022/07/09 11:03:30;;;;;;;0.43;0.43;;;27.60;99.90;;;;;;5037786;28;20182;-83
2022/07/09 11:05:57;;;;;;;0.47;0.47;;;27.50;99.90;;;;;;5038949;28;20201;-85
2022/07/09 11:08:23;;;;;;;0.33;0.33;;;27.20;99.90;;;;;;5037370;28;20177;-83
2022/07/09 11:10:49;;;;;;;0.87;0.67;;;26.50;99.90;;;;;;5040381;28;20204;-82
2022/07/09 11:13:14;;;;;;;0.70;0.70;;;25.70;99.90;;;;;;5040263;28;20930;-83
2022/07/09 11:15:40;;;;;;;0.33;0.33;;;25.30;99.90;;;;;;5046405;28;20198;-83
2022/07/09 11:18:08;;;;;;;0.50;0.50;;;26.30;99.90;;;;;;5041257;28;21158;-85
2022/07/09 11:20:43;;;;;;;0.57;0.57;;;27.30;99.90;;;;;;5044715;28;20246;-84
2022/07/09 11:23:10;;;;;;;0.60;0.60;;;27.90;99.90;;;;;;5038755;28;20185;-85
2022/07/09 11:25:36;;;;;;;0.50;0.50;;;28.20;99.90;;;;;;5043114;28;20209;-82
2022/07/09 11:28:03;;;;;;;0.50;0.50;;;28.20;99.90;;;;;;5037297;28;20189;-82
2022/07/09 11:30:30;;;;;;;0.32;0.32;;;28.30;99.90;;;;;;5037082;28;20618;-83
2022/07/09 11:32:56;;;;;;;0.60;0.45;;;27.70;99.90;;;;;;5038257;28;20203;-83
2022/07/09 11:35:29;;;;;;;0.40;0.40;;;28.40;99.90;;;;;;5039275;28;20190;-83
2022/07/09 11:37:57;;;;;;;0.57;0.55;;;28.90;99.90;;;;;;5039586;28;20320;-82
2022/07/09 11:40:24;;;;;;;0.50;0.50;;;28.50;99.90;;;;;;5035905;28;20523;-83
2022/07/09 11:42:50;;;;;;;0.50;0.50;;;28.40;99.90;;;;;;5037626;28;20174;-82
2022/07/09 11:45:23;;;;;;;0.50;0.50;;;27.90;99.90;;;;;;5037298;28;20224;-82
2022/07/09 11:47:50;;;;;;;0.70;0.60;;;28.10;99.90;;;;;;5037722;28;20182;-83
2022/07/09 11:50:18;;;;;;;0.32;0.32;;;28.30;99.90;;;;;;5056873;28;20185;-82
2022/07/09 11:52:49;;;;;;;0.93;0.65;;;28.50;99.90;;;;;;5038427;28;20194;-82
2022/07/09 11:55:21;;;;;;;2.72;0.70;;;28.30;99.90;;;;;;5040078;28;20178;-83
2022/07/09 11:57:57;;;;;;;0.40;0.40;;;28.20;99.90;;;;;;5039647;28;20232;-82
2022/07/09 12:00:28;;;;;;;0.50;0.50;;;28.20;99.90;;;;;;5039704;28;20209;-81
2022/07/09 12:02:56;;;;;;;0.30;0.30;;;27.50;99.90;;;;;;5037955;28;20193;-82
2022/07/09 12:05:33;;;;;;;0.50;0.50;;;26.80;99.90;;;;;;5043870;28;20185;-82
2022/07/09 12:08:01;;;;;;;0.60;0.60;;;26.00;99.90;;;;;;5045194;28;20190;-83
2022/07/09 12:10:32;;;;;;;0.33;0.33;;;26.40;99.90;;;;;;5036982;28;21340;-83
2022/07/09 12:12:59;;;;;;;1.03;0.50;;;26.70;99.90;;;;;;5038970;28;20190;-83
2022/07/09 12:15:25;;;;;;;0.30;0.30;;;26.90;99.90;;;;;;5038534;28;20605;-82
2022/07/09 12:17:55;;;;;;;0.67;0.57;;;27.00;99.90;;;;;;5038244;28;20189;-82
2022/07/09 12:20:22;;;;;;;0.57;0.50;;;27.10;99.90;;;;;;5037347;28;20332;-82
2022/07/09 12:22:48;;;;;;;0.70;0.60;;;27.10;99.90;;;;;;5038730;28;20194;-82
2022/07/09 12:25:13;;;;;;;0.40;0.40;;;27.40;99.90;;;;;;5038823;28;20196;-84
2022/07/09 12:27:39;;;;;;;0.63;0.63;;;27.50;99.90;;;;;;5040852;28;20261;-83
2022/07/09 12:30:05;;;;;;;0.40;0.40;;;26.90;99.90;;;;;;5038071;28;20201;-83
2022/07/09 12:32:31;;;;;;;0.47;0.47;;;27.00;99.90;;;;;;5043573;28;20186;-83
2022/07/09 12:34:56;;;;;;;0.60;0.60;;;27.30;99.90;;;;;;5035668;28;20221;-83
2022/07/09 12:37:22;;;;;;;0.25;0.25;;;27.20;99.90;;;;;;5034678;28;20190;-82
2022/07/09 12:39:49;;;;;;;0.55;0.55;;;27.40;99.90;;;;;;5032504;28;20221;-83
2022/07/09 12:42:15;;;;;;;0.53;0.47;;;27.40;99.90;;;;;;5043341;28;20293;-83
2022/07/09 12:44:40;;;;;;;0.40;0.40;;;27.60;99.90;;;;;;5038090;28;20747;-83